sensor_id;sensor_type;location;lat;lon;timestamp;P1;durP1;ratioP1;P2;durP2;ratioP2
4061;SDS011;2046;47.064;15.456;2022-07-23T00:01:21;8.98;;;6.95;;
4061;SDS011;2046;47.064;15.456;2022-07-23T00:03:53;10.82;;;6.30;;
4061;SDS011;2046;47.064;15.456;2022-07-23T00:06:21;9.27;;;6.50;;
4061;SDS011;2046;47.064;15.456;2022-07-23T00:08:48;8.20;;;6.70;;
4061;SDS011;2046;47.064;15.456;2022-07-23T00:11:14;7.93;;;6.97;;
4061;SDS011;2046;47.064;15.456;2022-07-23T00:13:41;12.27;;;6.88;;
4061;SDS011;2046;47.064;15.456;2022-07-23T00:16:07;8.60;;;6.55;;
4061;SDS011;2046;47.064;15.456;2022-07-23T00:18:34;8.13;;;5.82;;
4061;SDS011;2046;47.064;15.456;2022-07-23T00:21:00;8.25;;;7.00;;
4061;SDS011;2046;47.064;15.456;2022-07-23T00:23:27;10.07;;;5.97;;
4061;SDS011;2046;47.064;15.456;2022-07-23T00:25:55;12.75;;;7.25;;
4061;SDS011;2046;47.064;15.456;2022-07-23T00:28:21;11.35;;;6.68;;
4061;SDS011;2046;47.064;15.456;2022-07-23T00:30:48;9.85;;;7.13;;
4061;SDS011;2046;47.064;15.456;2022-07-23T00:33:14;8.20;;;6.60;;
4061;SDS011;2046;47.064;15.456;2022-07-23T00:35:41;8.65;;;5.05;;
4061;SDS011;2046;47.064;15.456;2022-07-23T00:38:08;7.50;;;6.18;;
4061;SDS011;2046;47.064;15.456;2022-07-23T00:40:36;14.85;;;6.97;;
4061;SDS011;2046;47.064;15.456;2022-07-23T00:43:03;8.57;;;6.32;;
4061;SDS011;2046;47.064;15.456;2022-07-23T00:45:29;8.38;;;6.38;;
4061;SDS011;2046;47.064;15.456;2022-07-23T00:47:56;10.40;;;6.45;;
4061;SDS011;2046;47.064;15.456;2022-07-23T00:50:23;9.45;;;6.10;;
4061;SDS011;2046;47.064;15.456;2022-07-23T00:52:49;9.05;;;6.68;;
4061;SDS011;2046;47.064;15.456;2022-07-23T00:55:16;9.05;;;6.75;;
4061;SDS011;2046;47.064;15.456;2022-07-23T00:57:43;8.15;;;6.15;;
4061;SDS011;2046;47.064;15.456;2022-07-23T01:00:10;10.65;;;6.72;;
4061;SDS011;2046;47.064;15.456;2022-07-23T01:02:38;9.68;;;6.60;;
4061;SDS011;2046;47.064;15.456;2022-07-23T01:05:04;10.65;;;6.68;;
4061;SDS011;2046;47.064;15.456;2022-07-23T01:07:31;8.80;;;6.32;;
4061;SDS011;2046;47.064;15.456;2022-07-23T01:09:57;7.60;;;6.43;;
4061;SDS011;2046;47.064;15.456;2022-07-23T01:12:25;9.18;;;7.03;;
4061;SDS011;2046;47.064;15.456;2022-07-23T01:14:55;7.60;;;6.60;;
4061;SDS011;2046;47.064;15.456;2022-07-23T01:17:21;8.00;;;6.07;;
4061;SDS011;2046;47.064;15.456;2022-07-23T01:19:48;7.30;;;5.93;;
4061;SDS011;2046;47.064;15.456;2022-07-23T01:22:15;8.30;;;6.43;;
4061;SDS011;2046;47.064;15.456;2022-07-23T01:24:43;7.53;;;6.40;;
4061;SDS011;2046;47.064;15.456;2022-07-23T01:27:10;7.38;;;6.10;;
4061;SDS011;2046;47.064;15.456;2022-07-23T01:29:39;10.25;;;6.68;;
4061;SDS011;2046;47.064;15.456;2022-07-23T01:32:05;7.57;;;6.18;;
4061;SDS011;2046;47.064;15.456;2022-07-23T01:34:32;8.82;;;6.22;;
4061;SDS011;2046;47.064;15.456;2022-07-23T01:36:59;10.85;;;6.60;;
4061;SDS011;2046;47.064;15.456;2022-07-23T01:39:25;9.23;;;6.80;;
4061;SDS011;2046;47.064;15.456;2022-07-23T01:41:52;9.55;;;6.75;;
4061;SDS011;2046;47.064;15.456;2022-07-23T01:44:18;10.32;;;7.32;;
4061;SDS011;2046;47.064;15.456;2022-07-23T01:46:45;11.00;;;7.95;;
4061;SDS011;2046;47.064;15.456;2022-07-23T01:49:11;12.68;;;7.40;;
4061;SDS011;2046;47.064;15.456;2022-07-23T01:51:38;9.75;;;7.70;;
4061;SDS011;2046;47.064;15.456;2022-07-23T01:54:28;10.35;;;7.13;;
4061;SDS011;2046;47.064;15.456;2022-07-23T01:56:55;8.75;;;7.20;;
4061;SDS011;2046;47.064;15.456;2022-07-23T01:59:21;11.32;;;7.65;;
4061;SDS011;2046;47.064;15.456;2022-07-23T02:01:48;10.30;;;7.47;;
4061;SDS011;2046;47.064;15.456;2022-07-23T02:04:17;12.07;;;7.93;;
4061;SDS011;2046;47.064;15.456;2022-07-23T02:06:44;11.50;;;8.00;;
4061;SDS011;2046;47.064;15.456;2022-07-23T02:09:10;11.15;;;7.47;;
4061;SDS011;2046;47.064;15.456;2022-07-23T02:11:37;11.60;;;7.45;;
4061;SDS011;2046;47.064;15.456;2022-07-23T02:14:03;13.82;;;8.15;;
4061;SDS011;2046;47.064;15.456;2022-07-23T02:16:30;11.02;;;7.38;;
4061;SDS011;2046;47.064;15.456;2022-07-23T02:18:56;12.23;;;7.85;;
4061;SDS011;2046;47.064;15.456;2022-07-23T02:21:24;14.40;;;8.27;;
4061;SDS011;2046;47.064;15.456;2022-07-23T02:23:50;9.20;;;7.55;;
4061;SDS011;2046;47.064;15.456;2022-07-23T02:26:17;9.60;;;7.68;;
4061;SDS011;2046;47.064;15.456;2022-07-23T02:28:46;8.82;;;7.10;;
4061;SDS011;2046;47.064;15.456;2022-07-23T02:31:12;11.63;;;7.35;;
4061;SDS011;2046;47.064;15.456;2022-07-23T02:33:39;9.93;;;7.47;;
4061;SDS011;2046;47.064;15.456;2022-07-23T02:36:06;11.07;;;8.00;;
4061;SDS011;2046;47.064;15.456;2022-07-23T02:38:32;12.57;;;7.50;;
4061;SDS011;2046;47.064;15.456;2022-07-23T02:40:59;8.77;;;7.65;;
4061;SDS011;2046;47.064;15.456;2022-07-23T02:43:25;11.38;;;7.95;;
4061;SDS011;2046;47.064;15.456;2022-07-23T02:45:52;10.05;;;7.93;;
4061;SDS011;2046;47.064;15.456;2022-07-23T02:48:18;9.18;;;5.70;;
4061;SDS011;2046;47.064;15.456;2022-07-23T02:50:45;11.23;;;8.18;;
4061;SDS011;2046;47.064;15.456;2022-07-23T02:53:11;10.90;;;7.57;;
4061;SDS011;2046;47.064;15.456;2022-07-23T02:55:38;9.30;;;7.68;;
4061;SDS011;2046;47.064;15.456;2022-07-23T02:58:04;10.50;;;8.98;;
4061;SDS011;2046;47.064;15.456;2022-07-23T03:00:31;14.82;;;7.68;;
4061;SDS011;2046;47.064;15.456;2022-07-23T03:02:57;10.40;;;8.10;;
4061;SDS011;2046;47.064;15.456;2022-07-23T03:05:24;9.23;;;7.43;;
4061;SDS011;2046;47.064;15.456;2022-07-23T03:07:50;9.02;;;7.47;;
4061;SDS011;2046;47.064;15.456;2022-07-23T03:10:17;8.80;;;7.47;;
4061;SDS011;2046;47.064;15.456;2022-07-23T03:12:43;8.95;;;7.65;;
4061;SDS011;2046;47.064;15.456;2022-07-23T03:15:10;8.45;;;7.45;;
4061;SDS011;2046;47.064;15.456;2022-07-23T03:17:37;10.73;;;7.63;;
4061;SDS011;2046;47.064;15.456;2022-07-23T03:20:03;9.77;;;7.82;;
4061;SDS011;2046;47.064;15.456;2022-07-23T03:22:30;9.88;;;7.47;;
4061;SDS011;2046;47.064;15.456;2022-07-23T03:24:56;10.20;;;7.75;;
4061;SDS011;2046;47.064;15.456;2022-07-23T03:27:23;13.05;;;8.05;;
4061;SDS011;2046;47.064;15.456;2022-07-23T03:29:51;8.60;;;7.07;;
4061;SDS011;2046;47.064;15.456;2022-07-23T03:32:18;9.85;;;7.65;;
4061;SDS011;2046;47.064;15.456;2022-07-23T03:34:45;8.63;;;5.57;;
4061;SDS011;2046;47.064;15.456;2022-07-23T03:37:12;10.80;;;7.38;;
4061;SDS011;2046;47.064;15.456;2022-07-23T03:39:38;10.20;;;7.72;;
4061;SDS011;2046;47.064;15.456;2022-07-23T03:42:05;8.68;;;7.30;;
4061;SDS011;2046;47.064;15.456;2022-07-23T03:44:32;9.00;;;7.70;;
4061;SDS011;2046;47.064;15.456;2022-07-23T03:46:58;11.75;;;7.78;;
4061;SDS011;2046;47.064;15.456;2022-07-23T03:49:25;13.98;;;7.50;;
4061;SDS011;2046;47.064;15.456;2022-07-23T03:51:52;7.75;;;6.05;;
4061;SDS011;2046;47.064;15.456;2022-07-23T03:54:18;8.70;;;7.20;;
4061;SDS011;2046;47.064;15.456;2022-07-23T03:56:45;9.35;;;7.05;;
4061;SDS011;2046;47.064;15.456;2022-07-23T03:59:11;8.95;;;8.02;;
4061;SDS011;2046;47.064;15.456;2022-07-23T04:01:38;11.38;;;8.15;;
4061;SDS011;2046;47.064;15.456;2022-07-23T04:04:04;10.10;;;7.70;;
4061;SDS011;2046;47.064;15.456;2022-07-23T04:06:31;9.65;;;7.07;;
4061;SDS011;2046;47.064;15.456;2022-07-23T04:08:58;10.10;;;7.82;;
4061;SDS011;2046;47.064;15.456;2022-07-23T04:11:25;12.60;;;7.80;;
4061;SDS011;2046;47.064;15.456;2022-07-23T04:13:52;8.57;;;7.68;;
4061;SDS011;2046;47.064;15.456;2022-07-23T04:16:19;9.43;;;7.78;;
4061;SDS011;2046;47.064;15.456;2022-07-23T04:18:45;12.82;;;8.18;;
4061;SDS011;2046;47.064;15.456;2022-07-23T04:21:12;10.07;;;8.20;;
4061;SDS011;2046;47.064;15.456;2022-07-23T04:23:38;7.38;;;6.65;;
4061;SDS011;2046;47.064;15.456;2022-07-23T04:26:05;11.73;;;7.43;;
4061;SDS011;2046;47.064;15.456;2022-07-23T04:28:31;10.55;;;8.13;;
4061;SDS011;2046;47.064;15.456;2022-07-23T04:30:58;9.07;;;7.68;;
4061;SDS011;2046;47.064;15.456;2022-07-23T04:33:25;11.52;;;7.85;;
4061;SDS011;2046;47.064;15.456;2022-07-23T04:35:51;9.48;;;7.95;;
4061;SDS011;2046;47.064;15.456;2022-07-23T04:38:18;9.63;;;7.57;;
4061;SDS011;2046;47.064;15.456;2022-07-23T04:40:46;10.00;;;7.60;;
4061;SDS011;2046;47.064;15.456;2022-07-23T04:43:12;9.30;;;8.00;;
4061;SDS011;2046;47.064;15.456;2022-07-23T04:45:39;10.43;;;7.78;;
4061;SDS011;2046;47.064;15.456;2022-07-23T04:48:06;9.88;;;7.75;;
4061;SDS011;2046;47.064;15.456;2022-07-23T04:50:32;10.00;;;8.27;;
4061;SDS011;2046;47.064;15.456;2022-07-23T04:52:59;9.73;;;7.40;;
4061;SDS011;2046;47.064;15.456;2022-07-23T04:55:26;8.30;;;7.20;;
4061;SDS011;2046;47.064;15.456;2022-07-23T04:57:52;11.52;;;8.30;;
4061;SDS011;2046;47.064;15.456;2022-07-23T05:00:19;11.15;;;7.10;;
4061;SDS011;2046;47.064;15.456;2022-07-23T05:02:45;8.55;;;7.10;;
4061;SDS011;2046;47.064;15.456;2022-07-23T05:05:12;9.45;;;7.10;;
4061;SDS011;2046;47.064;15.456;2022-07-23T05:07:38;7.20;;;6.45;;
4061;SDS011;2046;47.064;15.456;2022-07-23T05:10:05;9.80;;;7.45;;
4061;SDS011;2046;47.064;15.456;2022-07-23T05:12:31;9.55;;;7.32;;
4061;SDS011;2046;47.064;15.456;2022-07-23T05:14:59;8.98;;;7.22;;
4061;SDS011;2046;47.064;15.456;2022-07-23T05:17:25;11.07;;;7.65;;
4061;SDS011;2046;47.064;15.456;2022-07-23T05:19:52;9.45;;;6.95;;
4061;SDS011;2046;47.064;15.456;2022-07-23T05:22:25;9.50;;;6.90;;
4061;SDS011;2046;47.064;15.456;2022-07-23T05:24:52;9.13;;;6.93;;
4061;SDS011;2046;47.064;15.456;2022-07-23T05:27:18;9.00;;;6.75;;
4061;SDS011;2046;47.064;15.456;2022-07-23T05:29:45;9.95;;;6.53;;
4061;SDS011;2046;47.064;15.456;2022-07-23T05:32:11;8.35;;;6.75;;
4061;SDS011;2046;47.064;15.456;2022-07-23T05:34:38;8.27;;;6.93;;
4061;SDS011;2046;47.064;15.456;2022-07-23T05:37:05;8.73;;;6.40;;
4061;SDS011;2046;47.064;15.456;2022-07-23T05:39:31;8.82;;;7.28;;
4061;SDS011;2046;47.064;15.456;2022-07-23T05:41:58;13.00;;;7.32;;
4061;SDS011;2046;47.064;15.456;2022-07-23T05:44:24;11.40;;;7.55;;
4061;SDS011;2046;47.064;15.456;2022-07-23T05:46:59;8.13;;;6.53;;
4061;SDS011;2046;47.064;15.456;2022-07-23T05:49:26;8.75;;;6.85;;
4061;SDS011;2046;47.064;15.456;2022-07-23T05:51:53;8.13;;;6.95;;
4061;SDS011;2046;47.064;15.456;2022-07-23T05:54:19;8.75;;;6.38;;
4061;SDS011;2046;47.064;15.456;2022-07-23T05:56:46;8.38;;;4.85;;
4061;SDS011;2046;47.064;15.456;2022-07-23T05:59:13;8.43;;;6.63;;
4061;SDS011;2046;47.064;15.456;2022-07-23T06:01:41;6.63;;;5.90;;
4061;SDS011;2046;47.064;15.456;2022-07-23T06:04:08;7.55;;;6.20;;
4061;SDS011;2046;47.064;15.456;2022-07-23T06:06:35;9.65;;;6.55;;
4061;SDS011;2046;47.064;15.456;2022-07-23T06:09:01;13.50;;;7.00;;
4061;SDS011;2046;47.064;15.456;2022-07-23T06:11:29;8.43;;;5.38;;
4061;SDS011;2046;47.064;15.456;2022-07-23T06:13:55;9.07;;;6.80;;
4061;SDS011;2046;47.064;15.456;2022-07-23T06:16:22;9.05;;;6.32;;
4061;SDS011;2046;47.064;15.456;2022-07-23T06:18:49;7.40;;;6.07;;
4061;SDS011;2046;47.064;15.456;2022-07-23T06:21:15;7.45;;;6.65;;
4061;SDS011;2046;47.064;15.456;2022-07-23T06:24:02;9.27;;;6.55;;
4061;SDS011;2046;47.064;15.456;2022-07-23T06:26:28;9.13;;;7.28;;
4061;SDS011;2046;47.064;15.456;2022-07-23T06:28:55;11.40;;;5.88;;
4061;SDS011;2046;47.064;15.456;2022-07-23T06:31:21;9.45;;;6.47;;
4061;SDS011;2046;47.064;15.456;2022-07-23T06:33:48;8.65;;;5.90;;
4061;SDS011;2046;47.064;15.456;2022-07-23T06:36:16;6.75;;;6.00;;
4061;SDS011;2046;47.064;15.456;2022-07-23T06:38:42;6.82;;;5.55;;
4061;SDS011;2046;47.064;15.456;2022-07-23T06:41:10;5.95;;;5.38;;
4061;SDS011;2046;47.064;15.456;2022-07-23T06:43:36;6.05;;;5.40;;
4061;SDS011;2046;47.064;15.456;2022-07-23T06:46:03;7.53;;;5.65;;
4061;SDS011;2046;47.064;15.456;2022-07-23T06:48:30;6.85;;;5.60;;
4061;SDS011;2046;47.064;15.456;2022-07-23T06:50:56;6.75;;;5.70;;
4061;SDS011;2046;47.064;15.456;2022-07-23T06:53:23;7.35;;;5.38;;
4061;SDS011;2046;47.064;15.456;2022-07-23T06:55:50;6.80;;;5.55;;
4061;SDS011;2046;47.064;15.456;2022-07-23T06:58:16;5.85;;;5.05;;
4061;SDS011;2046;47.064;15.456;2022-07-23T07:00:44;6.13;;;4.65;;
4061;SDS011;2046;47.064;15.456;2022-07-23T07:03:11;5.78;;;4.50;;
4061;SDS011;2046;47.064;15.456;2022-07-23T07:05:38;12.15;;;4.95;;
4061;SDS011;2046;47.064;15.456;2022-07-23T07:08:05;5.68;;;4.05;;
4061;SDS011;2046;47.064;15.456;2022-07-23T07:10:32;6.88;;;4.53;;
4061;SDS011;2046;47.064;15.456;2022-07-23T07:12:59;4.97;;;4.35;;
4061;SDS011;2046;47.064;15.456;2022-07-23T07:15:25;4.65;;;4.00;;
4061;SDS011;2046;47.064;15.456;2022-07-23T07:17:52;5.50;;;4.07;;
4061;SDS011;2046;47.064;15.456;2022-07-23T07:20:18;6.05;;;4.20;;
4061;SDS011;2046;47.064;15.456;2022-07-23T07:22:45;5.32;;;3.83;;
4061;SDS011;2046;47.064;15.456;2022-07-23T07:25:11;4.82;;;3.90;;
4061;SDS011;2046;47.064;15.456;2022-07-23T07:27:38;4.75;;;4.00;;
4061;SDS011;2046;47.064;15.456;2022-07-23T07:30:05;6.65;;;3.95;;
4061;SDS011;2046;47.064;15.456;2022-07-23T07:32:31;4.90;;;3.83;;
4061;SDS011;2046;47.064;15.456;2022-07-23T07:35:22;4.05;;;3.65;;
4061;SDS011;2046;47.064;15.456;2022-07-23T07:37:49;5.68;;;3.90;;
4061;SDS011;2046;47.064;15.456;2022-07-23T07:40:15;5.45;;;3.70;;
4061;SDS011;2046;47.064;15.456;2022-07-23T07:42:49;5.07;;;4.22;;
4061;SDS011;2046;47.064;15.456;2022-07-23T07:45:16;4.60;;;4.03;;
4061;SDS011;2046;47.064;15.456;2022-07-23T07:47:42;5.18;;;3.92;;
4061;SDS011;2046;47.064;15.456;2022-07-23T07:50:09;7.40;;;4.00;;
4061;SDS011;2046;47.064;15.456;2022-07-23T07:52:38;5.22;;;4.10;;
4061;SDS011;2046;47.064;15.456;2022-07-23T07:55:05;3.83;;;3.53;;
4061;SDS011;2046;47.064;15.456;2022-07-23T07:57:32;5.75;;;3.60;;
4061;SDS011;2046;47.064;15.456;2022-07-23T07:59:59;4.82;;;3.60;;
4061;SDS011;2046;47.064;15.456;2022-07-23T08:02:42;5.85;;;4.18;;
4061;SDS011;2046;47.064;15.456;2022-07-23T08:05:09;4.32;;;3.92;;
4061;SDS011;2046;47.064;15.456;2022-07-23T08:07:36;7.32;;;4.18;;
4061;SDS011;2046;47.064;15.456;2022-07-23T08:10:03;5.43;;;4.13;;
4061;SDS011;2046;47.064;15.456;2022-07-23T08:15:11;5.70;;;4.10;;
4061;SDS011;2046;47.064;15.456;2022-07-23T08:17:40;5.13;;;4.18;;
4061;SDS011;2046;47.064;15.456;2022-07-23T08:20:07;5.53;;;4.25;;
4061;SDS011;2046;47.064;15.456;2022-07-23T08:22:52;5.35;;;4.13;;
4061;SDS011;2046;47.064;15.456;2022-07-23T08:25:20;5.72;;;4.55;;
4061;SDS011;2046;47.064;15.456;2022-07-23T08:27:47;5.15;;;4.30;;
4061;SDS011;2046;47.064;15.456;2022-07-23T08:30:15;5.10;;;4.60;;
4061;SDS011;2046;47.064;15.456;2022-07-23T08:32:53;6.05;;;4.03;;
4061;SDS011;2046;47.064;15.456;2022-07-23T08:35:27;5.20;;;4.30;;
4061;SDS011;2046;47.064;15.456;2022-07-23T08:37:55;5.85;;;4.30;;
4061;SDS011;2046;47.064;15.456;2022-07-23T08:40:22;4.72;;;3.90;;
4061;SDS011;2046;47.064;15.456;2022-07-23T08:42:49;6.18;;;4.25;;
4061;SDS011;2046;47.064;15.456;2022-07-23T08:45:17;6.70;;;4.40;;
4061;SDS011;2046;47.064;15.456;2022-07-23T08:47:45;6.15;;;4.13;;
4061;SDS011;2046;47.064;15.456;2022-07-23T08:50:19;5.15;;;4.63;;
4061;SDS011;2046;47.064;15.456;2022-07-23T08:52:46;4.55;;;4.13;;
4061;SDS011;2046;47.064;15.456;2022-07-23T08:55:13;6.18;;;4.28;;
4061;SDS011;2046;47.064;15.456;2022-07-23T08:57:42;5.53;;;5.03;;
4061;SDS011;2046;47.064;15.456;2022-07-23T09:00:09;7.55;;;4.82;;
4061;SDS011;2046;47.064;15.456;2022-07-23T09:02:39;5.25;;;4.68;;
4061;SDS011;2046;47.064;15.456;2022-07-23T09:05:07;5.97;;;4.75;;
4061;SDS011;2046;47.064;15.456;2022-07-23T09:07:35;7.68;;;5.15;;
4061;SDS011;2046;47.064;15.456;2022-07-23T09:10:05;6.55;;;4.80;;
4061;SDS011;2046;47.064;15.456;2022-07-23T09:12:32;7.40;;;5.28;;
4061;SDS011;2046;47.064;15.456;2022-07-23T09:15:08;6.40;;;4.97;;
4061;SDS011;2046;47.064;15.456;2022-07-23T09:17:38;5.63;;;5.13;;
4061;SDS011;2046;47.064;15.456;2022-07-23T09:20:15;6.20;;;4.50;;
4061;SDS011;2046;47.064;15.456;2022-07-23T09:22:46;6.78;;;5.55;;
4061;SDS011;2046;47.064;15.456;2022-07-23T09:25:14;8.30;;;4.95;;
4061;SDS011;2046;47.064;15.456;2022-07-23T09:27:45;8.32;;;5.28;;
4061;SDS011;2046;47.064;15.456;2022-07-23T09:30:19;5.03;;;4.28;;
4061;SDS011;2046;47.064;15.456;2022-07-23T09:35:48;5.60;;;4.40;;
4061;SDS011;2046;47.064;15.456;2022-07-23T09:38:15;6.45;;;4.65;;
4061;SDS011;2046;47.064;15.456;2022-07-23T09:40:43;6.43;;;4.40;;
4061;SDS011;2046;47.064;15.456;2022-07-23T09:43:10;6.00;;;4.35;;
4061;SDS011;2046;47.064;15.456;2022-07-23T09:45:37;5.60;;;4.72;;
4061;SDS011;2046;47.064;15.456;2022-07-23T09:48:16;7.72;;;4.50;;
4061;SDS011;2046;47.064;15.456;2022-07-23T09:50:43;5.70;;;4.35;;
4061;SDS011;2046;47.064;15.456;2022-07-23T09:53:25;5.80;;;4.50;;
4061;SDS011;2046;47.064;15.456;2022-07-23T09:55:52;5.85;;;4.70;;
4061;SDS011;2046;47.064;15.456;2022-07-23T09:58:23;6.25;;;4.93;;
4061;SDS011;2046;47.064;15.456;2022-07-23T10:00:53;8.93;;;4.90;;
4061;SDS011;2046;47.064;15.456;2022-07-23T10:03:19;7.97;;;5.07;;
4061;SDS011;2046;47.064;15.456;2022-07-23T10:05:47;8.65;;;5.25;;
4061;SDS011;2046;47.064;15.456;2022-07-23T10:08:14;5.90;;;5.30;;
4061;SDS011;2046;47.064;15.456;2022-07-23T10:10:42;7.43;;;5.82;;
4061;SDS011;2046;47.064;15.456;2022-07-23T10:13:09;8.50;;;5.57;;
4061;SDS011;2046;47.064;15.456;2022-07-23T10:15:54;9.43;;;5.22;;
4061;SDS011;2046;47.064;15.456;2022-07-23T10:18:21;6.68;;;5.60;;
4061;SDS011;2046;47.064;15.456;2022-07-23T10:20:47;6.32;;;5.65;;
4061;SDS011;2046;47.064;15.456;2022-07-23T10:36:44;6.43;;;5.20;;
4061;SDS011;2046;47.064;15.456;2022-07-23T10:39:15;8.73;;;5.32;;
4061;SDS011;2046;47.064;15.456;2022-07-23T10:41:44;5.70;;;4.72;;
4061;SDS011;2046;47.064;15.456;2022-07-23T10:44:10;7.70;;;5.03;;
4061;SDS011;2046;47.064;15.456;2022-07-23T10:49:34;8.88;;;5.43;;
4061;SDS011;2046;47.064;15.456;2022-07-23T10:54:42;5.97;;;5.32;;
4061;SDS011;2046;47.064;15.456;2022-07-23T10:57:13;6.78;;;5.07;;
4061;SDS011;2046;47.064;15.456;2022-07-23T11:02:25;5.90;;;5.03;;
4061;SDS011;2046;47.064;15.456;2022-07-23T11:04:52;7.38;;;5.15;;
4061;SDS011;2046;47.064;15.456;2022-07-23T11:07:19;6.70;;;5.18;;
4061;SDS011;2046;47.064;15.456;2022-07-23T11:09:47;7.10;;;5.53;;
4061;SDS011;2046;47.064;15.456;2022-07-23T11:15:02;6.93;;;4.78;;
4061;SDS011;2046;47.064;15.456;2022-07-23T11:17:29;6.03;;;5.43;;
4061;SDS011;2046;47.064;15.456;2022-07-23T11:22:40;7.03;;;5.50;;
4061;SDS011;2046;47.064;15.456;2022-07-23T11:27:49;6.88;;;5.25;;
4061;SDS011;2046;47.064;15.456;2022-07-23T11:32:55;5.72;;;5.13;;
4061;SDS011;2046;47.064;15.456;2022-07-23T11:35:44;6.03;;;5.43;;
4061;SDS011;2046;47.064;15.456;2022-07-23T11:38:19;8.60;;;6.10;;
4061;SDS011;2046;47.064;15.456;2022-07-23T11:40:51;11.48;;;6.22;;
4061;SDS011;2046;47.064;15.456;2022-07-23T11:43:18;6.38;;;5.70;;
4061;SDS011;2046;47.064;15.456;2022-07-23T11:45:46;7.90;;;5.70;;
4061;SDS011;2046;47.064;15.456;2022-07-23T11:48:19;9.93;;;5.50;;
4061;SDS011;2046;47.064;15.456;2022-07-23T11:50:46;6.75;;;5.40;;
4061;SDS011;2046;47.064;15.456;2022-07-23T11:53:13;8.98;;;5.78;;
4061;SDS011;2046;47.064;15.456;2022-07-23T11:55:39;7.55;;;5.95;;
4061;SDS011;2046;47.064;15.456;2022-07-23T11:58:06;7.05;;;5.93;;
4061;SDS011;2046;47.064;15.456;2022-07-23T12:00:34;8.10;;;5.55;;
4061;SDS011;2046;47.064;15.456;2022-07-23T12:03:06;6.60;;;5.90;;
4061;SDS011;2046;47.064;15.456;2022-07-23T12:05:34;6.20;;;5.60;;
4061;SDS011;2046;47.064;15.456;2022-07-23T12:08:02;9.43;;;5.35;;
4061;SDS011;2046;47.064;15.456;2022-07-23T12:10:34;6.97;;;5.15;;
4061;SDS011;2046;47.064;15.456;2022-07-23T12:13:03;5.38;;;4.03;;
4061;SDS011;2046;47.064;15.456;2022-07-23T12:15:32;6.38;;;5.22;;
4061;SDS011;2046;47.064;15.456;2022-07-23T12:17:59;7.25;;;5.40;;
4061;SDS011;2046;47.064;15.456;2022-07-23T12:20:30;7.13;;;4.97;;
4061;SDS011;2046;47.064;15.456;2022-07-23T12:22:58;8.23;;;5.80;;
4061;SDS011;2046;47.064;15.456;2022-07-23T12:25:26;5.65;;;5.05;;
4061;SDS011;2046;47.064;15.456;2022-07-23T12:30:28;7.47;;;4.88;;
4061;SDS011;2046;47.064;15.456;2022-07-23T12:33:02;7.63;;;4.80;;
4061;SDS011;2046;47.064;15.456;2022-07-23T12:35:39;5.50;;;4.88;;
4061;SDS011;2046;47.064;15.456;2022-07-23T12:38:09;5.18;;;4.25;;
4061;SDS011;2046;47.064;15.456;2022-07-23T12:40:46;6.00;;;4.63;;
4061;SDS011;2046;47.064;15.456;2022-07-23T12:45:57;6.65;;;4.47;;
4061;SDS011;2046;47.064;15.456;2022-07-23T12:48:24;7.50;;;4.68;;
4061;SDS011;2046;47.064;15.456;2022-07-23T12:50:53;5.13;;;4.60;;
4061;SDS011;2046;47.064;15.456;2022-07-23T12:55:50;3.90;;;3.53;;
4061;SDS011;2046;47.064;15.456;2022-07-23T13:01:08;3.72;;;2.72;;
4061;SDS011;2046;47.064;15.456;2022-07-23T13:03:40;2.92;;;2.63;;
4061;SDS011;2046;47.064;15.456;2022-07-23T13:06:09;3.10;;;2.80;;
4061;SDS011;2046;47.064;15.456;2022-07-23T13:08:38;2.42;;;2.30;;
4061;SDS011;2046;47.064;15.456;2022-07-23T13:11:05;3.50;;;2.70;;
4061;SDS011;2046;47.064;15.456;2022-07-23T13:13:33;4.57;;;2.40;;
4061;SDS011;2046;47.064;15.456;2022-07-23T13:15:59;4.07;;;2.42;;
4061;SDS011;2046;47.064;15.456;2022-07-23T13:18:27;2.85;;;2.45;;
4061;SDS011;2046;47.064;15.456;2022-07-23T13:20:54;3.40;;;2.40;;
4061;SDS011;2046;47.064;15.456;2022-07-23T13:23:21;3.22;;;2.70;;
4061;SDS011;2046;47.064;15.456;2022-07-23T13:25:48;2.72;;;2.53;;
4061;SDS011;2046;47.064;15.456;2022-07-23T13:28:15;3.58;;;2.30;;
4061;SDS011;2046;47.064;15.456;2022-07-23T13:30:42;3.55;;;2.58;;
4061;SDS011;2046;47.064;15.456;2022-07-23T13:33:09;6.50;;;2.67;;
4061;SDS011;2046;47.064;15.456;2022-07-23T13:35:36;2.88;;;2.50;;
4061;SDS011;2046;47.064;15.456;2022-07-23T13:38:03;3.05;;;2.60;;
4061;SDS011;2046;47.064;15.456;2022-07-23T13:40:32;3.92;;;2.72;;
4061;SDS011;2046;47.064;15.456;2022-07-23T13:42:59;3.60;;;2.30;;
4061;SDS011;2046;47.064;15.456;2022-07-23T13:45:26;4.20;;;2.58;;
4061;SDS011;2046;47.064;15.456;2022-07-23T13:47:55;2.67;;;2.35;;
4061;SDS011;2046;47.064;15.456;2022-07-23T13:50:22;3.67;;;2.40;;
4061;SDS011;2046;47.064;15.456;2022-07-23T13:52:49;4.15;;;2.42;;
4061;SDS011;2046;47.064;15.456;2022-07-23T13:55:15;3.33;;;2.97;;
4061;SDS011;2046;47.064;15.456;2022-07-23T13:57:43;2.67;;;2.22;;
4061;SDS011;2046;47.064;15.456;2022-07-23T14:00:11;4.30;;;2.38;;
4061;SDS011;2046;47.064;15.456;2022-07-23T14:02:58;3.72;;;2.88;;
4061;SDS011;2046;47.064;15.456;2022-07-23T14:05:25;3.42;;;2.80;;
4061;SDS011;2046;47.064;15.456;2022-07-23T14:07:51;3.53;;;2.83;;
4061;SDS011;2046;47.064;15.456;2022-07-23T14:10:19;5.65;;;2.53;;
4061;SDS011;2046;47.064;15.456;2022-07-23T14:12:48;3.33;;;3.05;;
4061;SDS011;2046;47.064;15.456;2022-07-23T14:15:15;2.67;;;2.47;;
4061;SDS011;2046;47.064;15.456;2022-07-23T14:17:42;4.38;;;2.70;;
4061;SDS011;2046;47.064;15.456;2022-07-23T14:20:10;3.03;;;2.70;;
4061;SDS011;2046;47.064;15.456;2022-07-23T14:22:37;2.40;;;1.95;;
4061;SDS011;2046;47.064;15.456;2022-07-23T14:25:04;4.45;;;2.53;;
4061;SDS011;2046;47.064;15.456;2022-07-23T14:27:33;5.10;;;2.80;;
4061;SDS011;2046;47.064;15.456;2022-07-23T14:30:00;3.03;;;2.50;;
4061;SDS011;2046;47.064;15.456;2022-07-23T14:32:26;3.78;;;2.45;;
4061;SDS011;2046;47.064;15.456;2022-07-23T14:34:53;5.25;;;3.10;;
4061;SDS011;2046;47.064;15.456;2022-07-23T14:37:20;3.13;;;2.75;;
4061;SDS011;2046;47.064;15.456;2022-07-23T14:39:46;5.05;;;2.83;;
4061;SDS011;2046;47.064;15.456;2022-07-23T14:42:15;6.03;;;3.00;;
4061;SDS011;2046;47.064;15.456;2022-07-23T14:44:42;3.00;;;2.70;;
4061;SDS011;2046;47.064;15.456;2022-07-23T14:47:08;2.97;;;2.78;;
4061;SDS011;2046;47.064;15.456;2022-07-23T14:49:35;4.65;;;2.80;;
4061;SDS011;2046;47.064;15.456;2022-07-23T14:52:03;3.50;;;3.20;;
4061;SDS011;2046;47.064;15.456;2022-07-23T14:54:30;3.45;;;3.10;;
4061;SDS011;2046;47.064;15.456;2022-07-23T14:56:57;4.97;;;3.03;;
4061;SDS011;2046;47.064;15.456;2022-07-23T14:59:24;4.35;;;3.20;;
4061;SDS011;2046;47.064;15.456;2022-07-23T15:01:52;3.40;;;3.10;;
4061;SDS011;2046;47.064;15.456;2022-07-23T15:04:19;4.38;;;3.50;;
4061;SDS011;2046;47.064;15.456;2022-07-23T15:07:02;5.63;;;3.65;;
4061;SDS011;2046;47.064;15.456;2022-07-23T15:09:29;4.15;;;3.35;;
4061;SDS011;2046;47.064;15.456;2022-07-23T15:11:56;4.22;;;3.50;;
4061;SDS011;2046;47.064;15.456;2022-07-23T15:14:23;8.05;;;3.60;;
4061;SDS011;2046;47.064;15.456;2022-07-23T15:16:54;5.65;;;3.42;;
4061;SDS011;2046;47.064;15.456;2022-07-23T15:19:22;4.68;;;3.58;;
4061;SDS011;2046;47.064;15.456;2022-07-23T15:21:48;4.70;;;3.35;;
4061;SDS011;2046;47.064;15.456;2022-07-23T15:24:16;4.38;;;3.55;;
4061;SDS011;2046;47.064;15.456;2022-07-23T15:26:43;4.40;;;3.50;;
4061;SDS011;2046;47.064;15.456;2022-07-23T15:29:11;4.28;;;3.22;;
4061;SDS011;2046;47.064;15.456;2022-07-23T15:31:38;6.50;;;3.40;;
4061;SDS011;2046;47.064;15.456;2022-07-23T15:34:05;6.20;;;4.20;;
4061;SDS011;2046;47.064;15.456;2022-07-23T15:36:32;5.78;;;3.58;;
4061;SDS011;2046;47.064;15.456;2022-07-23T15:39:01;4.30;;;3.90;;
4061;SDS011;2046;47.064;15.456;2022-07-23T15:41:28;3.55;;;3.25;;
4061;SDS011;2046;47.064;15.456;2022-07-23T15:43:55;5.07;;;3.47;;
4061;SDS011;2046;47.064;15.456;2022-07-23T15:46:22;5.05;;;3.40;;
4061;SDS011;2046;47.064;15.456;2022-07-23T15:48:52;4.20;;;3.60;;
4061;SDS011;2046;47.064;15.456;2022-07-23T15:51:19;3.47;;;3.10;;